TimeMDT,TemperatureF,Dew PointF,Humidity,Sea Level PressureIn,VisibilityMPH,Wind Direction,Wind SpeedMPH,Gust SpeedMPH,PrecipitationIn,Events,Conditions,WindDirDegrees,DateUTC
12:17 AM,46.4,37.4,71,30.52,10.0,North,-9999.0,-,N/A,,Overcast,0,2013-07-06 06:17:00
12:37 AM,46.4,39.2,76,30.52,10.0,North,-9999.0,-,N/A,,Mostly Cloudy,0,2013-07-06 06:37:00
12:57 AM,44.6,39.2,81,30.52,10.0,North,-9999.0,-,N/A,,Mostly Cloudy,0,2013-07-06 06:57:00
1:17 AM,44.6,41.0,87,30.52,10.0,North,-9999.0,-,N/A,,Drizzle,0,2013-07-06 07:17:00
1:37 AM,44.6,41.0,87,30.52,10.0,North,-9999.0,-,N/A,,Overcast,0,2013-07-06 07:37:00
1:57 AM,44.6,41.0,87,30.52,10.0,North,-9999.0,-,N/A,,Overcast,0,2013-07-06 07:57:00
2:17 AM,44.6,41.0,87,30.51,10.0,North,-9999.0,-,N/A,,Overcast,0,2013-07-06 08:17:00
2:37 AM,42.8,41.0,93,30.52,10.0,North,-9999.0,-,N/A,,Scattered Clouds,0,2013-07-06 08:37:00
2:57 AM,42.8,41.0,93,30.51,10.0,North,-9999.0,-,N/A,,Clear,0,2013-07-06 08:57:00
3:17 AM,42.8,41.0,93,30.51,10.0,North,-9999.0,-,N/A,,Scattered Clouds,0,2013-07-06 09:17:00
3:37 AM,42.8,41.0,93,30.51,10.0,North,-9999.0,-,N/A,,Overcast,0,2013-07-06 09:37:00
3:57 AM,42.8,41.0,93,30.51,10.0,North,-9999.0,-,N/A,,Overcast,0,2013-07-06 09:57:00
4:17 AM,42.8,41.0,93,30.52,10.0,North,-9999.0,-,N/A,,Mostly Cloudy,0,2013-07-06 10:17:00
4:37 AM,41.0,41.0,100,30.51,10.0,North,-9999.0,-,N/A,,Scattered Clouds,0,2013-07-06 10:37:00
4:57 AM,41.0,41.0,100,30.52,10.0,North,-9999.0,-,N/A,,Clear,0,2013-07-06 10:57:00
5:17 AM,42.8,41.0,93,30.52,10.0,North,-9999.0,-,N/A,,Clear,0,2013-07-06 11:17:00
5:37 AM,42.8,41.0,93,30.52,10.0,North,-9999.0,-,N/A,,Clear,0,2013-07-06 11:37:00
5:57 AM,44.6,39.2,81,30.52,10.0,North,-9999.0,-,N/A,,Mostly Cloudy,0,2013-07-06 11:57:00
6:17 AM,44.6,37.4,76,30.52,10.0,North,-9999.0,-,N/A,,Overcast,0,2013-07-06 12:17:00
6:37 AM,44.6,37.4,76,30.52,10.0,North,-9999.0,-,N/A,,Mostly Cloudy,0,2013-07-06 12:37:00
6:57 AM,44.6,37.4,76,30.52,10.0,North,-9999.0,-,N/A,,Overcast,0,2013-07-06 12:57:00
7:17 AM,44.6,37.4,76,30.52,10.0,North,-9999.0,-,N/A,,Overcast,0,2013-07-06 13:17:00
7:37 AM,46.4,35.6,66,30.52,10.0,North,-9999.0,-,N/A,,Mostly Cloudy,0,2013-07-06 13:37:00
7:57 AM,48.2,37.4,66,30.53,10.0,North,-9999.0,-,N/A,,Clear,0,2013-07-06 13:57:00
8:17 AM,50.0,37.4,62,30.54,10.0,North,-9999.0,-,N/A,,Clear,0,2013-07-06 14:17:00
8:37 AM,50.0,41.0,71,30.54,10.0,North,-9999.0,-,N/A,,Clear,0,2013-07-06 14:37:00
8:57 AM,51.8,37.4,58,30.54,10.0,North,-9999.0,-,N/A,,Clear,0,2013-07-06 14:57:00
9:17 AM,51.8,35.6,54,30.54,10.0,North,-9999.0,-,N/A,,Clear,0,2013-07-06 15:17:00
9:37 AM,53.6,41.0,62,30.54,10.0,North,-9999.0,-,N/A,,Clear,0,2013-07-06 15:37:00
9:57 AM,55.4,37.4,51,30.54,10.0,North,-9999.0,-,N/A,,Clear,0,2013-07-06 15:57:00
10:17 AM,55.4,39.2,54,30.54,10.0,North,-9999.0,-,N/A,,Clear,0,2013-07-06 16:17:00
10:37 AM,53.6,39.2,58,30.55,10.0,North,-9999.0,-,N/A,,Scattered Clouds,0,2013-07-06 16:37:00
10:57 AM,53.6,41.0,62,30.55,10.0,North,-9999.0,-,N/A,,Mostly Cloudy,0,2013-07-06 16:57:00
11:17 AM,53.6,37.4,54,30.56,10.0,North,-9999.0,-,N/A,,Mostly Cloudy,0,2013-07-06 17:17:00
11:37 AM,55.4,37.4,51,30.56,10.0,North,-9999.0,-,N/A,,Scattered Clouds,0,2013-07-06 17:37:00
11:57 AM,55.4,35.6,47,30.56,10.0,North,-9999.0,-,N/A,,Mostly Cloudy,0,2013-07-06 17:57:00
12:17 PM,57.2,37.4,48,30.56,10.0,North,-9999.0,-,N/A,,Scattered Clouds,0,2013-07-06 18:17:00
12:37 PM,55.4,37.4,51,30.55,10.0,North,-9999.0,-,N/A,,Scattered Clouds,0,2013-07-06 18:37:00
12:57 PM,59.0,39.2,48,30.55,10.0,North,-9999.0,-,N/A,,Mostly Cloudy,0,2013-07-06 18:57:00
1:17 PM,57.2,37.4,48,30.55,10.0,North,-9999.0,-,N/A,,Mostly Cloudy,0,2013-07-06 19:17:00
1:37 PM,60.8,41.0,48,30.54,10.0,North,-9999.0,-,N/A,,Overcast,0,2013-07-06 19:37:00
1:57 PM,55.4,42.8,63,30.54,10.0,North,-9999.0,-,N/A,Rain,Rain,0,2013-07-06 19:57:00
2:16 PM,59.0,42.8,55,30.54,10.0,North,-9999.0,-,N/A,,Mostly Cloudy,0,2013-07-06 20:16:00
2:37 PM,55.4,37.4,51,30.54,10.0,North,-9999.0,-,N/A,,Overcast,0,2013-07-06 20:37:00
2:57 PM,53.6,37.4,54,30.53,10.0,North,-9999.0,-,N/A,Thunderstorm,Unknown,0,2013-07-06 20:57:00
3:17 PM,55.4,39.2,54,30.52,10.0,North,-9999.0,-,N/A,,Overcast,0,2013-07-06 21:17:00
3:37 PM,51.8,37.4,58,30.53,10.0,North,-9999.0,-,N/A,,Light Drizzle,0,2013-07-06 21:37:00
3:57 PM,51.8,37.4,58,30.53,10.0,North,-9999.0,-,N/A,Rain,Light Rain,0,2013-07-06 21:57:00
4:17 PM,48.2,37.4,66,30.54,10.0,North,-9999.0,-,N/A,Rain,Light Rain,0,2013-07-06 22:17:00
4:37 PM,51.8,35.6,54,30.54,10.0,North,-9999.0,-,N/A,Rain-Thunderstorm,Light Thunderstorms and Rain,0,2013-07-06 22:37:00
4:56 PM,50.0,35.6,58,30.54,10.0,North,-9999.0,-,N/A,Rain-Thunderstorm,Thunderstorms and Rain,0,2013-07-06 22:56:00
5:17 PM,48.2,37.4,66,30.54,7.0,North,-9999.0,-,0.02,Rain,Light Rain,0,2013-07-06 23:17:00
5:37 PM,50.0,35.6,58,30.52,10.0,North,-9999.0,-,0.03,Rain,Light Rain,0,2013-07-06 23:37:00
5:57 PM,48.2,39.2,71,30.50,10.0,North,-9999.0,-,0.04,Rain,Light Rain,0,2013-07-06 23:57:00
6:17 PM,50.0,37.4,62,30.51,10.0,North,-9999.0,-,N/A,,Overcast,0,2013-07-07 00:17:00
6:37 PM,50.0,35.6,58,30.51,10.0,North,-9999.0,-,N/A,,Mostly Cloudy,0,2013-07-07 00:37:00
6:57 PM,51.8,35.6,54,30.51,10.0,North,-9999.0,-,N/A,,Scattered Clouds,0,2013-07-07 00:57:00
7:17 PM,50.0,35.6,58,30.52,10.0,North,-9999.0,-,N/A,Thunderstorm,Scattered Clouds,0,2013-07-07 01:17:00
7:37 PM,50.0,35.6,58,30.53,10.0,North,-9999.0,-,N/A,,Scattered Clouds,0,2013-07-07 01:37:00
7:57 PM,51.8,33.8,50,30.54,10.0,North,-9999.0,-,N/A,Thunderstorm,Overcast,0,2013-07-07 01:57:00
8:17 PM,50.0,33.8,54,30.54,10.0,North,-9999.0,-,N/A,,Overcast,0,2013-07-07 02:17:00
8:37 PM,50.0,35.6,58,30.56,10.0,North,-9999.0,-,N/A,Rain,Rain,0,2013-07-07 02:37:00
8:57 PM,46.4,39.2,76,30.57,10.0,North,-9999.0,-,N/A,,Drizzle,0,2013-07-07 02:57:00
9:17 PM,46.4,39.2,76,30.57,10.0,North,-9999.0,-,N/A,,Light Drizzle,0,2013-07-07 03:17:00
9:37 PM,44.6,39.2,81,30.59,10.0,North,-9999.0,-,N/A,,Overcast,0,2013-07-07 03:37:00
9:57 PM,44.6,37.4,76,30.59,10.0,North,-9999.0,-,N/A,Thunderstorm,Unknown,0,2013-07-07 03:57:00
10:17 PM,44.6,37.4,76,30.59,10.0,North,-9999.0,-,N/A,,Overcast,0,2013-07-07 04:17:00
10:37 PM,44.6,39.2,81,30.59,10.0,North,-9999.0,-,N/A,,Light Drizzle,0,2013-07-07 04:37:00
10:57 PM,46.4,35.6,66,30.59,10.0,North,-9999.0,-,N/A,,Overcast,0,2013-07-07 04:57:00
11:17 PM,48.2,35.6,62,30.59,10.0,North,-9999.0,-,N/A,,Overcast,0,2013-07-07 05:17:00
11:37 PM,46.4,35.6,66,30.59,10.0,North,-9999.0,-,N/A,,Overcast,0,2013-07-07 05:37:00
11:57 PM,46.4,35.6,66,30.59,10.0,North,-9999.0,-,N/A,,Overcast,0,2013-07-07 05:57:00